Coeur d'Alene, ID (83814)

7:00 PM PDT on September 18, 2014 (GMT -0700)
Downtown Coeur d'Alene | Change Station
CLOSE
Current Station
Personal Weather Station
Location: Coeur d'Alene, ID
Elevation: 2175 ft
Nearby Weather Stations

Elev 2175 ft 47.67 °N, 116.79 °W | Updated 30 minutes ago

Mostly Cloudy
Mostly Cloudy
75.9 °F
Feels Like 77 °F
N
18.3
Wind Variable Wind from SW
Gusts 23.5 mph

Today
High -- | Low -- °F
--% Chance of Precip.
Yesterday
High -- | Low -- °F
Precip. -- in
6:28 AM 6:52 PM
Waning Crescent, 23% visible
Pressure 29.75 in
Visibility 10.0 miles
Clouds Scattered Clouds 7000 ft
Mostly Cloudy 8000 ft
Heat Index 77 °F
Dew Point 45 °F
Humidity 33%
Rainfall 0.00 in
Snow Depth 0 in , 0 in , 0 in
UV 0 out of 12
Pollen 7.40 out of 12
Air Quality Not available.
Flu Activity Not available.
METAR KCOE 190155Z AUTO 25007KT 10SM SCT070 BKN080 23/07 A2975 RMK AO1

More Conditions Fewer Conditions

Pressure 29.75 in
Visibility 10.0 miles
Clouds Scattered Clouds 7000 ft
Mostly Cloudy 8000 ft
Heat Index 77 °F
Dew Point 45 °F
Humidity 33%
Rainfall 0.00 in
Snow Depth 0 in , 0 in , 0 in
UV 0 out of 12
Pollen 7.40 out of 12
Air Quality Not available.
Flu Activity Not available.
METAR KCOE 190155Z AUTO 25007KT 10SM SCT070 BKN080 23/07 A2975 RMK AO1

More Conditions Fewer Conditions

10-Day Weather Forecast

Almanac

Astronomy

Sep. 18, 2014 Rise Set
Actual Time 6:28 AM PDT 6:52 PM PDT
Civil Twilight 5:57 AM PDT 7:23 PM PDT
Nautical Twilight 5:21 AM PDT 8:00 PM PDT
Astronomical Twilight 4:42 AM PDT 8:38 PM PDT
Moon 1:07 AM PDT (9/18) 4:02 PM PDT (9/18)
Length of Visible Light 13h 26m
Length of Day
12h 24m
Tomorrow will be 3m 25s shorter.
Waning Crescent, 23% of the Moon is Illuminated
Today
Waning Crescent
Sep 24
New
Oct 1
First Quarter
Oct 8
Full
Oct 15
Last Quarter

Today's Extremes

State Highs State Lows

Community

WunderPhotos

Upload Photos

1,754,537 photos uploaded!

Nearby

Snow Depth

Station Depth Elevation
Franklin Basin 0 in 8170 ft
Sunset 0 in 5540 ft
Bear Basin 0 in 5350 ft
Brundage Reservoir 3 in 6300 ft
Savage Pass 1 in 6170 ft

Earthquake Activity

City Distance Mag. Time & Date
No recent earthquake activity has been reported nearby.
Minimum magnitude displayed is 2.5.

Coastal Water Temperatures

Place Temperature
No Stations Reporting

Nearby Weather Stations